Wetterstation Vordersexau
Wetterdaten: Woche 27.02.23 - 05.03.23 (KW9)
Datum Zeit Temp. A. Feuchte A. Luftdruck Regen Wind Richtung Taupunkt Windchill Windben
27.02.2023 00:00 0,7 C 63 % 1013,8 hPa 0,0 l/m 5,0 km/h (1 Bft) NO -5,5 C 0,7 C 11,2 km/h (2 Bft)
27.02.2023 01:00 0,6 C 65 % 1013,9 hPa 0,0 l/m 5,0 km/h (1 Bft) N-NO -5,2 C 0,6 C 9,7 km/h (2 Bft)
27.02.2023 02:00 0,5 C 65 % 1013,9 hPa 0,0 l/m 2,5 km/h (1 Bft) N-NO -5,3 C 0,5 C 6,1 km/h (2 Bft)
27.02.2023 03:00 0,2 C 66 % 1013,5 hPa 0,0 l/m 3,6 km/h (1 Bft) O-NO -5,4 C 0,2 C 9,7 km/h (2 Bft)
27.02.2023 04:00 0,3 C 65 % 1013,5 hPa 0,0 l/m 3,6 km/h (1 Bft) N-NO -5,5 C 0,3 C 11,2 km/h (2 Bft)
27.02.2023 05:00 0,2 C 65 % 1014,1 hPa 0,0 l/m 1,1 km/h (1 Bft) N-NO -5,6 C 0,2 C 3,6 km/h (1 Bft)
27.02.2023 06:00 0,1 C 64 % 1014,0 hPa 0,0 l/m 3,6 km/h (1 Bft) NO -5,9 C 0,1 C 7,2 km/h (2 Bft)
27.02.2023 07:00 -0,3 C 68 % 1014,4 hPa 0,0 l/m 2,5 km/h (1 Bft) O-NO -5,5 C -0,3 C 3,6 km/h (1 Bft)
27.02.2023 08:00 -0,1 C 67 % 1015,0 hPa 0,0 l/m 3,6 km/h (1 Bft) O-NO -5,5 C -0,1 C 7,2 km/h (2 Bft)
27.02.2023 09:00 1,4 C 62 % 1015,3 hPa 0,0 l/m 5,0 km/h (1 Bft) NO -5,1 C 1,4 C 11,2 km/h (2 Bft)
27.02.2023 10:00 2,8 C 59 % 1015,8 hPa 0,0 l/m 6,1 km/h (2 Bft) O-NO -4,4 C 2,8 C 11,2 km/h (2 Bft)
27.02.2023 11:00 2,8 C 58 % 1016,4 hPa 0,0 l/m 3,6 km/h (1 Bft) O-NO -4,6 C 2,8 C 7,2 km/h (2 Bft)
27.02.2023 12:00 3,2 C 54 % 1016,5 hPa 0,0 l/m 5,0 km/h (1 Bft) S-SO -5,2 C 3,2 C 7,2 km/h (2 Bft)
27.02.2023 13:00 4,0 C 54 % 1016,5 hPa 0,0 l/m 6,1 km/h (2 Bft) SO -4,4 C 4,0 C 9,7 km/h (2 Bft)
27.02.2023 14:00 3,9 C 50 % 1016,4 hPa 0,0 l/m 9,7 km/h (2 Bft) O -5,6 C 1,1 C 17,3 km/h (3 Bft)
27.02.2023 15:00 3,7 C 54 % 1016,4 hPa 0,0 l/m 1,1 km/h (1 Bft) O-NO -4,7 C 3,7 C 3,6 km/h (1 Bft)
27.02.2023 16:00 3,4 C 52 % 1016,6 hPa 0,0 l/m 5,0 km/h (1 Bft) NO -5,5 C 3,4 C 13,3 km/h (3 Bft)
27.02.2023 17:00 3,0 C 55 % 1017,2 hPa 0,0 l/m 2,5 km/h (1 Bft) O-NO -5,1 C 3,0 C 6,1 km/h (2 Bft)
27.02.2023 18:00 2,7 C 57 % 1017,8 hPa 0,0 l/m 3,6 km/h (1 Bft) NO -4,9 C 2,7 C 6,1 km/h (2 Bft)
27.02.2023 19:00 2,2 C 59 % 1018,5 hPa 0,0 l/m 5,0 km/h (1 Bft) NO -5,0 C 2,2 C 7,2 km/h (2 Bft)
27.02.2023 20:00 1,5 C 59 % 1018,7 hPa 0,0 l/m 2,5 km/h (1 Bft) O-NO -5,6 C 1,5 C 3,6 km/h (1 Bft)
27.02.2023 21:00 1,6 C 57 % 1018,4 hPa 0,0 l/m 3,6 km/h (1 Bft) N -6,0 C 1,6 C 6,1 km/h (2 Bft)
27.02.2023 22:00 0,9 C 58 % 1018,3 hPa 0,0 l/m 0,0 km/h (0 Bft) N-NO -6,4 C 0,9 C 2,5 km/h (1 Bft)
27.02.2023 23:00 0,1 C 62 % 1018,3 hPa 0,0 l/m 1,1 km/h (1 Bft) N -6,3 C 0,1 C 2,5 km/h (1 Bft)
28.02.2023 00:00 -0,1 C 63 % 1018,2 hPa 0,0 l/m 0,0 km/h (0 Bft) NO -6,3 C -0,1 C 0,0 km/h (0 Bft)
28.02.2023 01:00 0,2 C 63 % 1018,2 hPa 0,0 l/m 2,5 km/h (1 Bft) N -6,0 C 0,2 C 3,6 km/h (1 Bft)
28.02.2023 02:00 0,0 C 64 % 1018,2 hPa 0,0 l/m 0,0 km/h (0 Bft) N -6,0 C 0,0 C 0,0 km/h (0 Bft)
28.02.2023 03:00 0,1 C 66 % 1017,9 hPa 0,0 l/m 0,0 km/h (0 Bft) NO -5,5 C 0,1 C 2,5 km/h (1 Bft)
28.02.2023 04:00 0,3 C 64 % 1017,5 hPa 0,0 l/m 3,6 km/h (1 Bft) N-NO -5,7 C 0,3 C 7,2 km/h (2 Bft)
28.02.2023 05:00 0,0 C 67 % 1017,8 hPa 0,0 l/m 2,5 km/h (1 Bft) NO -5,4 C 0,0 C 3,6 km/h (1 Bft)
28.02.2023 06:00 -0,6 C 73 % 1017,9 hPa 0,0 l/m 1,1 km/h (1 Bft) NO -4,8 C -0,6 C 2,5 km/h (1 Bft)
28.02.2023 07:00 -1,3 C 82 % 1018,4 hPa 0,0 l/m 1,1 km/h (1 Bft) NO -4,0 C -1,3 C 2,5 km/h (1 Bft)
28.02.2023 08:00 -0,6 C 77 % 1018,5 hPa 0,0 l/m 2,5 km/h (1 Bft) NO -4,1 C -0,6 C 6,1 km/h (2 Bft)
28.02.2023 09:00 0,3 C 75 % 1018,9 hPa 0,0 l/m 2,5 km/h (1 Bft) O-NO -3,6 C 0,3 C 6,1 km/h (2 Bft)
28.02.2023 10:00 1,8 C 68 % 1018,9 hPa 0,0 l/m 1,1 km/h (1 Bft) O-SO -3,5 C 1,8 C 3,6 km/h (1 Bft)
28.02.2023 11:00 1,7 C 66 % 1019,1 hPa 0,0 l/m 3,6 km/h (1 Bft) NO -4,0 C 1,7 C 7,2 km/h (2 Bft)
28.02.2023 12:00 2,4 C 67 % 1019,2 hPa 0,0 l/m 2,5 km/h (1 Bft) NO -3,1 C 2,4 C 6,1 km/h (2 Bft)
28.02.2023 13:00 2,9 C 67 % 1019,2 hPa 0,0 l/m 1,1 km/h (1 Bft) O-NO -2,6 C 2,9 C 3,6 km/h (1 Bft)
28.02.2023 14:00 3,5 C 66 % 1018,8 hPa 0,0 l/m 3,6 km/h (1 Bft) N-NO -2,2 C 3,5 C 6,1 km/h (2 Bft)
28.02.2023 15:00 3,8 C 64 % 1018,9 hPa 0,0 l/m 2,5 km/h (1 Bft) N -2,4 C 3,8 C 3,6 km/h (1 Bft)
28.02.2023 16:00 3,2 C 64 % 1019,1 hPa 0,0 l/m 3,6 km/h (1 Bft) NO -2,9 C 3,2 C 7,2 km/h (2 Bft)
28.02.2023 17:00 3,6 C 63 % 1019,4 hPa 0,0 l/m 1,1 km/h (1 Bft) N -2,8 C 3,6 C 2,5 km/h (1 Bft)
28.02.2023 18:00 2,1 C 68 % 1019,6 hPa 0,0 l/m 0,0 km/h (0 Bft) N -3,2 C 2,1 C 0,0 km/h (0 Bft)
28.02.2023 19:00 -1,2 C 82 % 1020,0 hPa 0,0 l/m 0,0 km/h (0 Bft) N -3,9 C -1,2 C 0,0 km/h (0 Bft)
28.02.2023 20:00 -1,7 C 85 % 1019,9 hPa 0,0 l/m 0,0 km/h (0 Bft) NO -3,9 C -1,7 C 2,5 km/h (1 Bft)
28.02.2023 21:00 -2,2 C 87 % 1019,9 hPa 0,0 l/m 2,5 km/h (1 Bft) O-SO -4,1 C -2,2 C 3,6 km/h (1 Bft)
28.02.2023 22:00 -2,6 C 87 % 1019,7 hPa 0,0 l/m 1,1 km/h (1 Bft) O-SO -4,5 C -2,6 C 3,6 km/h (1 Bft)
28.02.2023 23:00 -3,0 C 88 % 1019,7 hPa 0,0 l/m 1,1 km/h (1 Bft) O-SO -4,7 C -3,0 C 2,5 km/h (1 Bft)
01.03.2023 00:00 -3,8 C 89 % 1019,5 hPa 0,0 l/m 0,0 km/h (0 Bft) O-SO -5,3 C -3,8 C 0,0 km/h (0 Bft)
01.03.2023 01:00 -3,8 C 90 % 1019,5 hPa 0,0 l/m 2,5 km/h (1 Bft) N -5,2 C -3,8 C 3,6 km/h (1 Bft)
01.03.2023 02:00 -3,4 C 90 % 1019,0 hPa 0,0 l/m 0,0 km/h (0 Bft) N -4,8 C -3,4 C 0,0 km/h (0 Bft)
01.03.2023 03:00 -3,6 C 90 % 1018,6 hPa 0,0 l/m 0,0 km/h (0 Bft) N -5,0 C -3,6 C 0,0 km/h (0 Bft)
01.03.2023 04:00 -4,7 C 92 % 1018,2 hPa 0,0 l/m 0,0 km/h (0 Bft) O -5,8 C -4,7 C 0,0 km/h (0 Bft)
01.03.2023 05:00 -4,8 C 93 % 1017,6 hPa 0,0 l/m 1,1 km/h (1 Bft) N -5,8 C -4,8 C 2,5 km/h (1 Bft)
01.03.2023 06:00 -4,3 C 94 % 1017,4 hPa 0,0 l/m 0,0 km/h (0 Bft) N -5,1 C -4,3 C 0,0 km/h (0 Bft)
01.03.2023 07:00 -3,9 C 94 % 1017,4 hPa 0,0 l/m 0,0 km/h (0 Bft) O-SO -4,7 C -3,9 C 0,0 km/h (0 Bft)
01.03.2023 08:00 -2,5 C 93 % 1017,4 hPa 0,0 l/m 3,6 km/h (1 Bft) O-SO -3,5 C -2,5 C 3,6 km/h (1 Bft)
01.03.2023 09:00 -1,3 C 89 % 1017,0 hPa 0,0 l/m 2,5 km/h (1 Bft) W -2,9 C -1,3 C 2,5 km/h (1 Bft)
01.03.2023 10:00 0,6 C 84 % 1016,5 hPa 0,0 l/m 3,6 km/h (1 Bft) NW -1,8 C 0,6 C 6,1 km/h (2 Bft)
01.03.2023 11:00 2,3 C 76 % 1016,1 hPa 0,0 l/m 3,6 km/h (1 Bft) SW -1,5 C 2,3 C 6,1 km/h (2 Bft)
01.03.2023 12:00 4,4 C 74 % 1015,4 hPa 0,0 l/m 3,6 km/h (1 Bft) W-SW 0,2 C 4,4 C 6,1 km/h (2 Bft)
01.03.2023 13:00 5,9 C 64 % 1014,7 hPa 0,0 l/m 5,0 km/h (1 Bft) NO -0,4 C 5,9 C 6,1 km/h (2 Bft)
01.03.2023 14:00 7,6 C 57 % 1013,8 hPa 0,0 l/m 2,5 km/h (1 Bft) O-NO -0,4 C 7,6 C 6,1 km/h (2 Bft)
01.03.2023 15:00 8,3 C 55 % 1013,3 hPa 0,0 l/m 1,1 km/h (1 Bft) W -0,2 C 8,3 C 3,6 km/h (1 Bft)
01.03.2023 16:00 7,8 C 60 % 1013,3 hPa 0,0 l/m 7,2 km/h (2 Bft) O-NO 0,5 C 7,2 C 11,2 km/h (2 Bft)
01.03.2023 17:00 7,4 C 60 % 1013,3 hPa 0,0 l/m 2,5 km/h (1 Bft) N 0,2 C 7,4 C 3,6 km/h (1 Bft)
01.03.2023 18:00 4,9 C 69 % 1013,7 hPa 0,0 l/m 0,0 km/h (0 Bft) N -0,3 C 4,9 C 0,0 km/h (0 Bft)
01.03.2023 19:00 3,2 C 76 % 1014,2 hPa 0,0 l/m 0,0 km/h (0 Bft) N -0,6 C 3,2 C 2,5 km/h (1 Bft)
01.03.2023 20:00 2,2 C 81 % 1014,1 hPa 0,0 l/m 0,0 km/h (0 Bft) S-SW -0,7 C 2,2 C 0,0 km/h (0 Bft)
01.03.2023 21:00 2,6 C 78 % 1014,1 hPa 0,0 l/m 1,1 km/h (1 Bft) S-SW -0,8 C 2,6 C 2,5 km/h (1 Bft)
01.03.2023 22:00 2,3 C 81 % 1013,7 hPa 0,0 l/m 1,1 km/h (1 Bft) S-SW -0,6 C 2,3 C 2,5 km/h (1 Bft)
01.03.2023 23:00 1,5 C 87 % 1013,1 hPa 0,0 l/m 2,5 km/h (1 Bft) S-SW -0,4 C 1,5 C 3,6 km/h (1 Bft)
02.03.2023 00:00 0,7 C 86 % 1012,6 hPa 0,0 l/m 1,1 km/h (1 Bft) S-SW -1,4 C 0,7 C 2,5 km/h (1 Bft)
02.03.2023 01:00 -0,5 C 89 % 1012,4 hPa 0,0 l/m 1,1 km/h (1 Bft) N -2,1 C -0,5 C 2,5 km/h (1 Bft)
02.03.2023 02:00 -1,2 C 89 % 1012,0 hPa 0,0 l/m 0,0 km/h (0 Bft) N -2,8 C -1,2 C 0,0 km/h (0 Bft)
02.03.2023 03:00 -2,6 C 93 % 1011,6 hPa 0,0 l/m 0,0 km/h (0 Bft) N -3,6 C -2,6 C 2,5 km/h (1 Bft)
02.03.2023 04:00 -2,3 C 92 % 1011,6 hPa 0,0 l/m 0,0 km/h (0 Bft) N -3,4 C -2,3 C 0,0 km/h (0 Bft)
02.03.2023 05:00 -3,2 C 94 % 1012,0 hPa 0,0 l/m 0,0 km/h (0 Bft) N -4,0 C -3,2 C 0,0 km/h (0 Bft)
02.03.2023 06:00 -2,4 C 95 % 1012,3 hPa 0,0 l/m 0,0 km/h (0 Bft) N -3,1 C -2,4 C 0,0 km/h (0 Bft)
02.03.2023 07:00 -1,3 C 92 % 1012,7 hPa 0,0 l/m 0,0 km/h (0 Bft) N -2,4 C -1,3 C 2,5 km/h (1 Bft)
02.03.2023 08:00 -0,4 C 91 % 1013,3 hPa 0,0 l/m 0,0 km/h (0 Bft) S-SW -1,7 C -0,4 C 0,0 km/h (0 Bft)
02.03.2023 09:00 0,0 C 89 % 1013,7 hPa 0,0 l/m 1,1 km/h (1 Bft) S-SW -1,6 C 0,0 C 2,5 km/h (1 Bft)
02.03.2023 10:00 0,7 C 88 % 1014,0 hPa 0,0 l/m 1,1 km/h (1 Bft) S-SW -1,1 C 0,7 C 3,6 km/h (1 Bft)
02.03.2023 11:00 1,6 C 85 % 1014,3 hPa 0,0 l/m 2,5 km/h (1 Bft) N -0,6 C 1,6 C 3,6 km/h (1 Bft)
02.03.2023 12:00 2,8 C 81 % 1014,3 hPa 0,0 l/m 0,0 km/h (0 Bft) W-SW -0,1 C 2,8 C 2,5 km/h (1 Bft)
02.03.2023 13:00 3,7 C 77 % 1014,2 hPa 0,0 l/m 3,6 km/h (1 Bft) W-SW 0,1 C 3,7 C 7,2 km/h (2 Bft)
02.03.2023 14:00 4,4 C 75 % 1013,9 hPa 0,0 l/m 1,1 km/h (1 Bft) W-SW 0,4 C 4,4 C 3,6 km/h (1 Bft)
02.03.2023 15:00 4,9 C 77 % 1013,9 hPa 0,0 l/m 1,1 km/h (1 Bft) W-SW 1,2 C 4,9 C 2,5 km/h (1 Bft)
02.03.2023 16:00 5,3 C 74 % 1013,9 hPa 0,0 l/m 1,1 km/h (1 Bft) N 1,0 C 5,3 C 3,6 km/h (1 Bft)
02.03.2023 17:00 4,9 C 74 % 1014,2 hPa 0,0 l/m 0,0 km/h (0 Bft) W 0,7 C 4,9 C 2,5 km/h (1 Bft)
02.03.2023 18:00 4,0 C 82 % 1014,5 hPa 0,0 l/m 1,1 km/h (1 Bft) W 1,2 C 4,0 C 2,5 km/h (1 Bft)
02.03.2023 19:00 2,5 C 84 % 1015,2 hPa 0,0 l/m 1,1 km/h (1 Bft) W 0,1 C 2,5 C 2,5 km/h (1 Bft)
02.03.2023 20:00 0,8 C 88 % 1015,4 hPa 0,0 l/m 1,1 km/h (1 Bft) W -1,0 C 0,8 C 2,5 km/h (1 Bft)
02.03.2023 21:00 1,2 C 90 % 1015,9 hPa 0,0 l/m 1,1 km/h (1 Bft) N -0,3 C 1,2 C 3,6 km/h (1 Bft)
02.03.2023 22:00 0,5 C 90 % 1015,8 hPa 0,0 l/m 0,0 km/h (0 Bft) S-SO -0,9 C 0,5 C 0,0 km/h (0 Bft)
02.03.2023 23:00 -0,2 C 92 % 1015,7 hPa 0,0 l/m 1,1 km/h (1 Bft) N -1,3 C -0,2 C 2,5 km/h (1 Bft)
03.03.2023 00:00 -0,6 C 93 % 1015,2 hPa 0,0 l/m 0,0 km/h (0 Bft) N -1,6 C -0,6 C 2,5 km/h (1 Bft)
03.03.2023 01:00 -0,9 C 93 % 1015,3 hPa 0,0 l/m 0,0 km/h (0 Bft) N -1,9 C -0,9 C 2,5 km/h (1 Bft)
03.03.2023 02:00 -1,2 C 94 % 1015,5 hPa 0,0 l/m 0,0 km/h (0 Bft) S-SO -2,0 C -1,2 C 0,0 km/h (0 Bft)
03.03.2023 03:00 -1,0 C 93 % 1015,2 hPa 0,0 l/m 2,5 km/h (1 Bft) S-SO -2,0 C -1,0 C 6,1 km/h (2 Bft)
03.03.2023 04:00 -1,5 C 94 % 1015,1 hPa 0,0 l/m 3,6 km/h (1 Bft) N -2,3 C -1,5 C 6,1 km/h (2 Bft)
03.03.2023 05:00 -2,1 C 95 % 1015,5 hPa 0,0 l/m 0,0 km/h (0 Bft) S-SO -2,8 C -2,1 C 2,5 km/h (1 Bft)
03.03.2023 06:00 -1,4 C 95 % 1015,7 hPa 0,0 l/m 1,1 km/h (1 Bft) N -2,1 C -1,4 C 2,5 km/h (1 Bft)
03.03.2023 07:00 -1,1 C 94 % 1016,0 hPa 0,0 l/m 0,0 km/h (0 Bft) N -1,9 C -1,1 C 0,0 km/h (0 Bft)
03.03.2023 08:00 0,0 C 93 % 1016,5 hPa 0,0 l/m 0,0 km/h (0 Bft) N -1,0 C 0,0 C 0,0 km/h (0 Bft)
03.03.2023 09:00 1,2 C 92 % 1017,0 hPa 0,0 l/m 0,0 km/h (0 Bft) S-SO 0,0 C 1,2 C 0,0 km/h (0 Bft)
03.03.2023 10:00 2,4 C 87 % 1016,9 hPa 0,0 l/m 2,5 km/h (1 Bft) W-SW 0,5 C 2,4 C 3,6 km/h (1 Bft)
03.03.2023 11:00 3,7 C 84 % 1017,0 hPa 0,0 l/m 1,1 km/h (1 Bft) NW 1,3 C 3,7 C 2,5 km/h (1 Bft)
03.03.2023 12:00 5,9 C 78 % 1016,8 hPa 0,0 l/m 7,2 km/h (2 Bft) NW 2,4 C 5,2 C 9,7 km/h (2 Bft)
03.03.2023 13:00 6,4 C 74 % 1016,4 hPa 0,0 l/m 5,0 km/h (1 Bft) W 2,1 C 6,4 C 9,7 km/h (2 Bft)
03.03.2023 14:00 7,2 C 74 % 1016,1 hPa 0,0 l/m 5,0 km/h (1 Bft) W 2,9 C 7,2 C 7,2 km/h (2 Bft)
03.03.2023 15:00 7,6 C 72 % 1015,8 hPa 0,0 l/m 2,5 km/h (1 Bft) NW 2,9 C 7,6 C 6,1 km/h (2 Bft)
03.03.2023 16:00 8,3 C 68 % 1015,4 hPa 0,0 l/m 3,6 km/h (1 Bft) W 2,7 C 8,3 C 9,7 km/h (2 Bft)
03.03.2023 17:00 7,0 C 77 % 1015,7 hPa 0,0 l/m 2,5 km/h (1 Bft) N 3,2 C 7,0 C 3,6 km/h (1 Bft)
03.03.2023 18:00 6,1 C 80 % 1016,1 hPa 0,0 l/m 0,0 km/h (0 Bft) SO 2,9 C 6,1 C 2,5 km/h (1 Bft)
03.03.2023 19:00 4,0 C 85 % 1017,1 hPa 0,0 l/m 1,1 km/h (1 Bft) O-SO 1,7 C 4,0 C 2,5 km/h (1 Bft)
03.03.2023 20:00 3,2 C 89 % 1017,4 hPa 0,0 l/m 1,1 km/h (1 Bft) N 1,6 C 3,2 C 2,5 km/h (1 Bft)
03.03.2023 21:00 2,5 C 89 % 1017,8 hPa 0,0 l/m 0,0 km/h (0 Bft) N 0,9 C 2,5 C 0,0 km/h (0 Bft)
03.03.2023 22:00 1,1 C 92 % 1018,0 hPa 0,0 l/m 0,0 km/h (0 Bft) O-SO -0,1 C 1,1 C 2,5 km/h (1 Bft)
03.03.2023 23:00 0,4 C 93 % 1018,1 hPa 0,0 l/m 3,6 km/h (1 Bft) O-SO -0,6 C 0,4 C 6,1 km/h (2 Bft)
04.03.2023 00:00 -0,3 C 95 % 1018,3 hPa 0,0 l/m 2,5 km/h (1 Bft) O-SO -1,0 C -0,3 C 2,5 km/h (1 Bft)
04.03.2023 01:00 -1,1 C 96 % 1018,6 hPa 0,0 l/m 0,0 km/h (0 Bft) O-SO -1,7 C -1,1 C 0,0 km/h (0 Bft)
04.03.2023 02:00 -1,8 C 96 % 1018,5 hPa 0,0 l/m 1,1 km/h (1 Bft) N -2,4 C -1,8 C 2,5 km/h (1 Bft)
04.03.2023 03:00 -2,0 C 96 % 1018,4 hPa 0,0 l/m 0,0 km/h (0 Bft) N -2,6 C -2,0 C 2,5 km/h (1 Bft)
04.03.2023 04:00 -2,4 C 97 % 1018,4 hPa 0,0 l/m 0,0 km/h (0 Bft) N -2,8 C -2,4 C 2,5 km/h (1 Bft)
04.03.2023 05:00 -2,8 C 97 % 1018,7 hPa 0,0 l/m 0,0 km/h (0 Bft) N -3,2 C -2,8 C 0,0 km/h (0 Bft)
04.03.2023 06:00 -3,1 C 97 % 1018,6 hPa 0,0 l/m 0,0 km/h (0 Bft) N -3,5 C -3,1 C 0,0 km/h (0 Bft)
04.03.2023 07:00 -3,4 C 96 % 1018,8 hPa 0,0 l/m 0,0 km/h (0 Bft) N -3,9 C -3,4 C 0,0 km/h (0 Bft)
04.03.2023 08:00 -2,1 C 96 % 1019,5 hPa 0,0 l/m 0,0 km/h (0 Bft) N -2,6 C -2,1 C 0,0 km/h (0 Bft)
04.03.2023 09:00 -0,7 C 96 % 1019,6 hPa 0,0 l/m 0,0 km/h (0 Bft) NW -1,3 C -0,7 C 0,0 km/h (0 Bft)
04.03.2023 10:00 -0,2 C 96 % 1020,0 hPa 0,0 l/m 5,0 km/h (1 Bft) W-NW -0,8 C -0,2 C 7,2 km/h (2 Bft)
04.03.2023 11:00 0,2 C 95 % 1019,9 hPa 0,0 l/m 1,1 km/h (1 Bft) NW -0,5 C 0,2 C 2,5 km/h (1 Bft)
04.03.2023 12:00 0,6 C 93 % 1019,5 hPa 0,0 l/m 2,5 km/h (1 Bft) W-NW -0,4 C 0,6 C 3,6 km/h (1 Bft)
04.03.2023 13:00 3,6 C 85 % 1018,5 hPa 0,0 l/m 3,6 km/h (1 Bft) W-NW 1,3 C 3,6 C 7,2 km/h (2 Bft)
04.03.2023 14:00 7,1 C 75 % 1017,5 hPa 0,0 l/m 2,5 km/h (1 Bft) N 3,0 C 7,1 C 3,6 km/h (1 Bft)
04.03.2023 15:00 9,6 C 59 % 1016,6 hPa 0,0 l/m 0,0 km/h (0 Bft) N-NW 2,0 C 9,6 C 2,5 km/h (1 Bft)
04.03.2023 16:00 8,5 C 61 % 1016,6 hPa 0,0 l/m 5,0 km/h (1 Bft) N-NW 1,4 C 8,5 C 9,7 km/h (2 Bft)
04.03.2023 17:00 6,3 C 66 % 1016,9 hPa 0,0 l/m 1,1 km/h (1 Bft) N 0,4 C 6,3 C 3,6 km/h (1 Bft)
04.03.2023 18:00 3,8 C 72 % 1017,3 hPa 0,0 l/m 1,1 km/h (1 Bft) N-NO -0,8 C 3,8 C 3,6 km/h (1 Bft)
04.03.2023 19:00 2,7 C 76 % 1017,9 hPa 0,0 l/m 2,5 km/h (1 Bft) N -1,1 C 2,7 C 7,2 km/h (2 Bft)
04.03.2023 20:00 0,9 C 82 % 1018,2 hPa 0,0 l/m 0,0 km/h (0 Bft) N -1,8 C 0,9 C 0,0 km/h (0 Bft)
04.03.2023 21:00 -0,8 C 87 % 1018,1 hPa 0,0 l/m 0,0 km/h (0 Bft) N -2,7 C -0,8 C 0,0 km/h (0 Bft)
04.03.2023 22:00 -0,8 C 88 % 1018,1 hPa 0,0 l/m 0,0 km/h (0 Bft) N -2,5 C -0,8 C 0,0 km/h (0 Bft)
04.03.2023 23:00 -1,5 C 90 % 1017,7 hPa 0,0 l/m 0,0 km/h (0 Bft) NO -2,9 C -1,5 C 0,0 km/h (0 Bft)
05.03.2023 00:00 -1,8 C 91 % 1017,4 hPa 0,0 l/m 1,1 km/h (1 Bft) N-NO -3,1 C -1,8 C 2,5 km/h (1 Bft)
05.03.2023 01:00 -2,2 C 91 % 1016,9 hPa 0,0 l/m 2,5 km/h (1 Bft) N-NO -3,5 C -2,2 C 3,6 km/h (1 Bft)
05.03.2023 02:00 -2,2 C 92 % 1016,5 hPa 0,0 l/m 1,1 km/h (1 Bft) NO -3,3 C -2,2 C 2,5 km/h (1 Bft)
05.03.2023 03:00 -2,2 C 93 % 1016,0 hPa 0,0 l/m 2,5 km/h (1 Bft) NO -3,2 C -2,2 C 3,6 km/h (1 Bft)
05.03.2023 04:00 -1,2 C 91 % 1015,6 hPa 0,0 l/m 1,1 km/h (1 Bft) NO -2,5 C -1,2 C 2,5 km/h (1 Bft)
05.03.2023 05:00 -0,9 C 91 % 1015,1 hPa 0,0 l/m 1,1 km/h (1 Bft) O-NO -2,2 C -0,9 C 2,5 km/h (1 Bft)
05.03.2023 06:00 -0,5 C 89 % 1014,8 hPa 0,0 l/m 1,1 km/h (1 Bft) N -2,1 C -0,5 C 2,5 km/h (1 Bft)
05.03.2023 07:00 -0,5 C 91 % 1014,7 hPa 0,0 l/m 0,0 km/h (0 Bft) N -1,8 C -0,5 C 0,0 km/h (0 Bft)
05.03.2023 08:00 0,2 C 90 % 1014,5 hPa 0,0 l/m 0,0 km/h (0 Bft) N -1,2 C 0,2 C 0,0 km/h (0 Bft)
05.03.2023 09:00 1,1 C 88 % 1014,0 hPa 0,0 l/m 0,0 km/h (0 Bft) N -0,7 C 1,1 C 0,0 km/h (0 Bft)
05.03.2023 10:00 2,7 C 81 % 1013,6 hPa 0,0 l/m 0,0 km/h (0 Bft) N-NO -0,2 C 2,7 C 0,0 km/h (0 Bft)
05.03.2023 11:00 3,6 C 78 % 1013,3 hPa 0,0 l/m 2,5 km/h (1 Bft) N-NW 0,1 C 3,6 C 3,6 km/h (1 Bft)
05.03.2023 12:00 4,6 C 74 % 1012,7 hPa 0,0 l/m 2,5 km/h (1 Bft) N-NW 0,4 C 4,6 C 6,1 km/h (2 Bft)
05.03.2023 13:00 5,5 C 73 % 1011,7 hPa 0,0 l/m 3,6 km/h (1 Bft) N-NW 1,1 C 5,5 C 6,1 km/h (2 Bft)
05.03.2023 14:00 6,8 C 69 % 1010,9 hPa 0,0 l/m 2,5 km/h (1 Bft) NO 1,5 C 6,8 C 3,6 km/h (1 Bft)
05.03.2023 15:00 6,8 C 60 % 1010,3 hPa 0,0 l/m 3,6 km/h (1 Bft) N-NW -0,4 C 6,8 C 7,2 km/h (2 Bft)
05.03.2023 16:00 6,6 C 64 % 1009,6 hPa 0,0 l/m 2,5 km/h (1 Bft) N 0,3 C 6,6 C 7,2 km/h (2 Bft)
05.03.2023 17:00 6,2 C 61 % 1008,9 hPa 0,0 l/m 1,1 km/h (1 Bft) N -0,7 C 6,2 C 2,5 km/h (1 Bft)
05.03.2023 18:00 5,2 C 68 % 1008,7 hPa 0,0 l/m 0,0 km/h (0 Bft) N -0,2 C 5,2 C 2,5 km/h (1 Bft)
Min-Datum _ 01.03.23 27.02.23 05.03.23 - 27.02.23 - 27.02.23 01.03.23 28.02.23
_ Min-Zeit 05:37 14:37 18:37 - 22:37 - 22:37 05:37 00:37
Minimum _ -4,8 C 50 % 1008,7 hPa - 0,0 km/h (0 Bft) - -6,4 C -4,8 C 0,0 km/h (0 Bft)
Max-Datum _ 04.03.23 04.03.23 28.02.23 27.02.23 27.02.23 - 03.03.23 04.03.23 27.02.23
_ Max-Zeit 15:37 04:37 19:37 00:37 14:37 - 17:37 15:37 14:37
Maximum _ 9,6 C 97 % 1020,0 hPa 0,0 l/m 9,7 km/h
O (2 Bft)
- 3,2 C 9,6 C 17,3 km/h
O (3 Bft)
Durchschnitt _ 1,3 C 79 % 1016,2 hPa #0,0 l/m 1,8 km/h (1 Bft) NO -2,2 C 1,3 C 3,7 km/h (1 Bft)
www.sexauwetter.de